Time;durP1;ratioP1;P1;durP2;ratioP2;P2;SDS_P1;SDS_P2;PMS_P1;PMS_P2;Temp;Humidity;BMP_temperature;BMP_pressure;BME280_temperature;BME280_humidity;BME280_pressure;Samples;Min_cycle;Max_cycle;Signal;HPM_P1;HPM_P2
2022/03/30 00:00:31;;;;;;;14.38;9.82;;;;;;;14.05;49.54;99059.63;6310214;22;19998;-88
2022/03/30 00:02:56;;;;;;;14.55;9.60;;;;;;;13.63;49.76;98995.53;6310011;22;20015;-88
2022/03/30 00:05:21;;;;;;;14.32;10.15;;;;;;;13.72;49.47;99018.16;6310399;22;20007;-88
2022/03/30 00:07:54;;;;;;;14.40;9.55;;;;;;;14.27;49.62;99076.91;6310547;22;20045;-88
2022/03/30 00:10:20;;;;;;;12.80;9.70;;;;;;;14.29;49.52;99074.84;6310773;22;20080;-88
2022/03/30 00:12:47;;;;;;;13.70;10.07;;;;;;;13.86;49.48;99022.38;6310547;22;20367;-87
2022/03/30 00:15:14;;;;;;;14.68;9.85;;;;;;;14.17;49.07;99060.63;6337852;22;19999;-88
2022/03/30 00:17:39;;;;;;;15.02;9.82;;;;;;;13.67;49.03;98970.22;6337788;22;20062;-88
2022/03/30 00:20:06;;;;;;;14.02;10.20;;;;;;;13.00;49.06;98863.59;6310430;22;20061;-88
2022/03/30 00:22:31;;;;;;;19.65;11.85;;;;;;;13.99;49.03;99027.63;6338013;22;20455;-88
2022/03/30 00:24:56;;;;;;;16.05;10.73;;;;;;;13.55;49.28;98961.31;6310328;22;19999;-88
2022/03/30 00:27:22;;;;;;;12.88;11.10;;;;;;;13.59;49.15;98967.81;6337593;22;20049;-88
2022/03/30 00:29:48;;;;;;;17.30;11.55;;;;;;;13.95;49.23;99034.38;6337488;22;19994;-88
2022/03/30 00:32:13;;;;;;;16.98;11.32;;;;;;;13.66;49.11;98984.50;6309736;22;20009;-89
2022/03/30 00:34:39;;;;;;;15.90;10.75;;;;;;;14.10;48.98;99054.50;6337527;22;19999;-88
2022/03/30 00:37:06;;;;;;;14.93;11.00;;;;;;;13.95;49.32;99028.25;6309692;22;20017;-89
2022/03/30 00:39:32;;;;;;;16.20;10.73;;;;;;;13.99;48.82;99032.09;6309765;22;20075;-88
2022/03/30 00:41:57;;;;;;;17.02;11.25;;;;;;;14.19;48.90;99064.69;6337832;22;19999;-88
2022/03/30 00:44:23;;;;;;;18.05;11.75;;;;;;;14.09;48.95;99063.50;6309686;22;20001;-89
2022/03/30 00:46:48;;;;;;;22.17;13.10;;;;;;;13.69;48.88;99002.66;6309959;22;20002;-88
2022/03/30 00:49:14;;;;;;;20.05;11.05;;;;;;;13.97;48.94;99048.25;6309808;22;19998;-89
2022/03/30 00:51:40;;;;;;;14.63;11.23;;;;;;;13.53;49.29;98997.84;6337341;22;19995;-88
2022/03/30 00:54:06;;;;;;;13.98;11.05;;;;;;;13.28;49.39;98961.38;6309830;22;19999;-89
2022/03/30 00:56:33;;;;;;;14.32;10.35;;;;;;;13.93;49.32;99065.63;6337336;22;20022;-87
2022/03/30 00:59:01;;;;;;;13.70;11.45;;;;;;;13.28;49.65;99003.81;6337380;22;20479;-88
2022/03/30 01:01:27;;;;;;;17.05;11.25;;;;;;;13.43;49.82;98997.47;6337520;22;20011;-89
2022/03/30 01:03:53;;;;;;;16.23;11.90;;;;;;;13.72;49.98;99030.59;6310041;22;19995;-89
2022/03/30 01:06:18;;;;;;;17.08;10.98;;;;;;;13.63;49.77;99030.03;6337680;22;20005;-89
2022/03/30 01:08:45;;;;;;;16.88;11.38;;;;;;;13.66;49.48;99030.41;6337508;22;20022;-89
2022/03/30 01:11:11;;;;;;;16.08;11.48;;;;;;;13.16;49.55;98973.63;6337248;22;20397;-89
2022/03/30 01:13:38;;;;;;;12.65;10.25;;;;;;;13.45;49.79;98998.88;6309611;22;20022;-88
2022/03/30 01:16:04;;;;;;;17.88;11.15;;;;;;;13.38;49.98;98984.00;6309559;22;20003;-88
2022/03/30 01:18:29;;;;;;;15.63;11.55;;;;;;;13.67;49.75;99034.69;6309254;22;20060;-88
2022/03/30 01:20:55;;;;;;;12.95;9.63;;;;;;;13.55;49.70;99027.63;6309849;22;19995;-88
2022/03/30 01:23:20;;;;;;;15.52;11.35;;;;;;;13.74;49.47;99032.03;6309709;22;20474;-89
2022/03/30 01:25:46;;;;;;;15.32;10.55;;;;;;;13.63;49.59;99022.88;6337660;22;20389;-89
2022/03/30 01:28:12;;;;;;;14.93;10.15;;;;;;;13.31;49.71;98979.53;6337387;22;19995;-88
2022/03/30 01:33:21;;;;;;;17.40;11.10;;;;;;;13.64;49.73;99036.97;6337282;22;20009;-88
2022/03/30 01:35:47;;;;;;;18.83;10.80;;;;;;;13.22;50.01;98995.88;6337228;22;19998;-88
2022/03/30 01:38:12;;;;;;;15.63;9.93;;;;;;;13.01;49.49;98955.31;6336933;22;20034;-89
2022/03/30 01:40:38;;;;;;;15.27;11.00;;;;;;;13.55;49.93;99043.53;6309913;22;20002;-89
2022/03/30 01:43:04;;;;;;;15.13;10.57;;;;;;;13.53;50.10;99037.63;6337436;22;19994;-89
2022/03/30 01:45:30;;;;;;;32.88;12.23;;;;;;;13.54;49.90;99040.06;6337076;22;20077;-89
2022/03/30 01:47:58;;;;;;;15.88;11.20;;;;;;;13.13;49.56;98982.00;6337018;22;20076;-89
2022/03/30 01:50:25;;;;;;;16.60;11.45;;;;;;;13.24;49.57;99021.16;6309738;22;20043;-89
2022/03/30 01:52:52;;;;;;;14.73;10.45;;;;;;;12.72;50.01;98929.31;6309170;22;20001;-89
2022/03/30 01:55:18;;;;;;;11.93;9.48;;;;;;;12.14;49.75;98851.56;6309673;22;20009;-89
2022/03/30 01:57:45;;;;;;;15.10;10.20;;;;;;;13.05;49.86;99012.19;6309695;22;20066;-88
2022/03/30 02:00:15;;;;;;;16.05;10.50;;;;;;;12.61;50.03;98954.56;6309596;22;20006;-89
2022/03/30 02:02:41;;;;;;;14.18;10.93;;;;;;;12.76;50.16;98967.59;6309316;22;20042;-89
2022/03/30 02:05:08;;;;;;;13.60;11.13;;;;;;;13.03;50.18;99030.13;6337280;22;19995;-88
2022/03/30 02:07:40;;;;;;;13.10;10.73;;;;;;;12.87;49.68;98987.34;6309084;22;20048;-88
2022/03/30 02:10:06;;;;;;;;;;;;;;;13.10;50.50;99050.50;6309520;22;20372;-89
2022/03/30 02:12:32;;;;;;;15.10;10.38;;;;;;;13.15;50.01;99056.81;6337004;22;20241;-89
2022/03/30 02:14:58;;;;;;;14.55;11.00;;;;;;;12.53;50.34;98965.34;6337012;22;19995;-88
2022/03/30 02:17:26;;;;;;;17.17;10.95;;;;;;;12.23;49.67;98908.56;6309192;22;19999;-89
2022/03/30 02:19:52;;;;;;;13.57;10.93;;;;;;;12.52;50.27;98982.25;6336827;22;19995;-88
2022/03/30 02:22:18;;;;;;;18.55;11.80;;;;;;;12.59;50.30;98998.16;6336840;22;20070;-89
2022/03/30 02:24:43;;;;;;;17.70;11.70;;;;;;;12.95;49.89;99035.66;6337319;22;19995;-89
2022/03/30 02:27:09;;;;;;;16.42;11.68;;;;;;;13.08;49.87;99056.03;6309617;22;20002;-89
2022/03/30 02:29:35;;;;;;;19.25;13.27;;;;;;;12.69;49.92;99025.06;6309650;22;19995;-89
2022/03/30 02:32:01;;;;;;;19.23;12.35;;;;;;;12.19;49.83;98958.44;6337372;22;19998;-89
2022/03/30 02:34:27;;;;;;;17.88;11.30;;;;;;;12.21;50.11;98953.75;6309320;22;20002;-89
2022/03/30 02:36:53;;;;;;;17.50;12.07;;;;;;;12.26;49.98;98969.84;6309597;22;20074;-89
2022/03/30 02:39:19;;;;;;;18.25;12.02;;;;;;;12.81;49.95;99065.81;6336938;22;20013;-89
2022/03/30 02:41:45;;;;;;;18.80;11.70;;;;;;;12.90;49.81;99093.75;6309453;22;20002;-89
2022/03/30 02:44:10;;;;;;;13.63;10.20;;;;;;;12.61;50.02;99047.25;6337137;22;20344;-89
2022/03/30 02:46:36;;;;;;;15.20;11.13;;;;;;;11.91;49.69;98952.50;6309779;22;20005;-89
2022/03/30 02:49:02;;;;;;;17.17;10.57;;;;;;;12.83;50.23;99084.16;6337097;22;19998;-88
2022/03/30 02:51:29;;;;;;;16.98;10.90;;;;;;;12.58;50.03;99074.13;6309359;22;20010;-89
2022/03/30 02:53:55;;;;;;;14.48;11.02;;;;;;;12.70;50.63;99084.97;6309339;22;20061;-89
2022/03/30 02:56:21;;;;;;;14.93;11.77;;;;;;;11.75;50.13;98932.47;6337003;22;19998;-89
2022/03/30 02:58:46;;;;;;;19.48;13.18;;;;;;;12.56;50.32;99076.16;6336825;22;19998;-89
2022/03/30 03:01:11;;;;;;;18.90;12.80;;;;;;;12.54;50.49;99074.75;6305469;22;20018;-89
2022/03/30 03:03:37;;;;;;;18.60;12.05;;;;;;;12.17;50.32;99004.66;6306716;22;20022;-89
2022/03/30 03:06:02;;;;;;;16.23;12.70;;;;;;;12.36;50.37;99048.84;6319304;22;19994;-88
2022/03/30 03:08:28;;;;;;;16.77;11.02;;;;;;;11.09;50.13;98874.09;6319820;22;19992;-88
2022/03/30 03:10:53;;;;;;;20.67;11.52;;;;;;;12.71;50.17;99097.19;6316971;22;20412;-89
2022/03/30 03:13:19;;;;;;;17.38;11.88;;;;;;;12.04;50.00;98982.44;6305984;22;20003;-89
2022/03/30 03:15:46;;;;;;;14.93;11.30;;;;;;;11.39;49.86;98904.50;6305624;22;20038;-89
2022/03/30 03:18:13;;;;;;;18.00;11.20;;;;;;;12.28;50.02;99027.88;6305573;22;19999;-89
2022/03/30 03:20:42;;;;;;;17.30;11.82;;;;;;;12.58;50.46;99092.69;6306084;22;20003;-89
2022/03/30 03:23:10;;;;;;;20.73;12.20;;;;;;;12.60;50.51;99090.63;6305899;22;20357;-89
2022/03/30 03:25:37;;;;;;;19.60;14.48;;;;;;;12.60;50.51;99100.41;6307239;22;20006;-89
2022/03/30 03:28:03;;;;;;;20.55;15.10;;;;;;;12.43;50.27;99067.41;6305553;22;20057;-88
2022/03/30 03:30:29;;;;;;;17.52;13.40;;;;;;;12.48;49.94;99118.72;6305810;22;20007;-89
2022/03/30 03:32:56;;;;;;;21.42;13.35;;;;;;;12.11;50.56;99045.16;6305775;22;20333;-88
2022/03/30 03:35:21;;;;;;;25.05;14.05;;;;;;;11.22;50.46;98905.88;6307181;22;20007;-89
2022/03/30 03:37:47;;;;;;;19.95;13.57;;;;;;;11.95;49.92;99012.75;6305835;22;19995;-88
2022/03/30 03:40:13;;;;;;;19.20;12.90;;;;;;;12.27;50.13;99061.47;6306047;22;20104;-89
2022/03/30 03:42:39;;;;;;;19.30;13.85;;;;;;;12.47;50.35;99090.63;6309246;22;20055;-88
2022/03/30 03:45:06;;;;;;;20.80;13.95;;;;;;;12.48;49.67;99129.31;6317436;22;20102;-88
2022/03/30 03:47:33;;;;;;;17.20;13.68;;;;;;;11.80;50.25;98988.25;6319190;22;20029;-88
2022/03/30 03:49:58;;;;;;;26.10;16.08;;;;;;;11.57;50.09;98948.09;6308523;22;20425;-89
2022/03/30 03:52:24;;;;;;;26.40;14.20;;;;;;;11.61;50.01;98963.34;6305576;22;20133;-88
2022/03/30 03:54:49;;;;;;;21.67;15.07;;;;;;;11.54;49.85;98965.16;6307165;22;19995;-88
2022/03/30 03:57:15;;;;;;;26.02;17.83;;;;;;;10.92;49.57;98886.00;6306656;22;19999;-89
2022/03/30 03:59:40;;;;;;;22.33;17.38;;;;;;;10.08;49.96;98743.63;6306829;22;19999;-89
2022/03/30 04:02:07;;;;;;;21.05;16.10;;;;;;;10.93;50.36;98914.06;6304934;22;20022;-89
2022/03/30 04:04:37;;;;;;;22.02;14.57;;;;;;;11.81;50.04;99040.13;6305295;22;20065;-89
2022/03/30 04:07:03;;;;;;;24.15;14.85;;;;;;;11.76;50.11;99040.69;6306838;22;19991;-89
2022/03/30 04:09:28;;;;;;;18.77;14.05;;;;;;;11.47;49.51;98998.69;6305205;22;19995;-89
2022/03/30 04:11:54;;;;;;;22.02;14.43;;;;;;;11.39;49.48;99001.50;6305076;22;20003;-89
2022/03/30 04:14:20;;;;;;;20.38;14.23;;;;;;;11.52;49.95;99022.72;6307008;22;19995;-89
2022/03/30 04:16:45;;;;;;;26.15;15.43;;;;;;;11.45;49.93;99035.91;6305017;22;19995;-89
2022/03/30 04:19:11;;;;;;;32.58;18.95;;;;;;;10.33;49.91;98903.09;6305101;22;20399;-90
2022/03/30 04:21:36;;;;;;;35.70;20.52;;;;;;;10.31;50.36;98870.81;6305153;22;20434;-89
2022/03/30 04:24:03;;;;;;;36.78;19.92;;;;;;;11.64;49.60;99075.84;6305367;22;19999;-89
2022/03/30 04:26:28;;;;;;;27.70;15.77;;;;;;;11.54;49.65;99073.56;6305144;22;20017;-89
2022/03/30 04:28:54;;;;;;;25.48;16.23;;;;;;;11.20;49.87;99028.63;6304810;22;20333;-89
2022/03/30 04:31:20;;;;;;;23.48;15.10;;;;;;;11.69;50.04;99099.88;6304852;22;20003;-89
2022/03/30 04:33:46;;;;;;;21.85;14.27;;;;;;;11.60;50.04;99082.53;6305077;22;19999;-89
2022/03/30 04:36:11;;;;;;;24.23;15.73;;;;;;;10.99;49.85;99003.09;6305078;22;20428;-89
2022/03/30 04:38:37;;;;;;;25.73;17.52;;;;;;;10.73;49.77;98943.00;6305001;22;20007;-88
2022/03/30 04:41:03;;;;;;;28.67;16.20;;;;;;;11.84;49.65;99119.09;6305276;22;19999;-89
2022/03/30 04:43:29;;;;;;;29.33;17.08;;;;;;;10.89;49.63;98979.66;6305259;22;20412;-89
2022/03/30 04:45:55;;;;;;;29.95;17.02;;;;;;;11.84;49.73;99124.38;6304946;22;20078;-89
2022/03/30 04:48:21;;;;;;;33.13;17.20;;;;;;;11.85;49.93;99119.91;6304898;22;20348;-89
2022/03/30 04:50:46;;;;;;;28.60;17.77;;;;;;;11.59;49.82;99096.75;6306317;22;20008;-89
2022/03/30 04:53:12;;;;;;;32.20;19.77;;;;;;;11.05;49.60;98989.09;6306364;22;19999;-89
2022/03/30 04:55:37;;;;;;;24.13;17.63;;;;;;;11.53;49.63;99061.34;6306463;22;20071;-89
2022/03/30 04:58:03;;;;;;;27.30;17.00;;;;;;;11.53;49.63;99056.06;6306383;22;20045;-89
2022/03/30 05:00:29;;;;;;;30.98;19.60;;;;;;;10.63;49.55;98931.97;6304776;22;20003;-89
2022/03/30 05:02:54;;;;;;;32.33;17.25;;;;;;;11.38;49.83;99013.91;6304689;22;20476;-89
2022/03/30 05:05:20;;;;;;;30.48;18.23;;;;;;;11.23;49.28;99007.13;6306405;22;19999;-89
2022/03/30 05:07:46;;;;;;;31.77;20.75;;;;;;;10.96;49.54;98963.84;6304711;22;20002;-89
2022/03/30 05:10:13;;;;;;;36.10;22.63;;;;;;;11.89;48.96;99069.09;6305101;22;19999;-89
2022/03/30 05:12:39;;;;;;;43.38;24.77;;;;;;;11.06;49.19;98945.81;6304823;22;20070;-89
2022/03/30 05:15:06;;;;;;;39.15;25.02;;;;;;;12.25;48.84;99118.25;6304303;22;19999;-88
2022/03/30 05:17:32;;;;;;;37.33;24.17;;;;;;;11.69;49.09;99023.19;6306346;22;20074;-88
2022/03/30 05:19:58;;;;;;;31.60;20.95;;;;;;;11.60;49.61;99006.66;6304797;22;20355;-89
2022/03/30 05:22:24;;;;;;;44.70;28.60;;;;;;;12.37;49.30;99125.44;6304210;22;19995;-89
2022/03/30 05:24:50;;;;;;;56.05;34.20;;;;;;;11.51;49.18;98994.63;6304344;22;19998;-89
2022/03/30 05:27:15;;;;;;;50.65;32.30;;;;;;;11.84;49.04;99037.09;6304273;22;20010;-89
2022/03/30 05:29:41;;;;;;;54.40;33.92;;;;;;;12.00;48.94;99073.00;6306213;22;20052;-89
2022/03/30 05:32:07;;;;;;;60.90;36.78;;;;;;;12.21;49.13;99093.22;6304875;22;20021;-89
2022/03/30 05:34:32;;;;;;;55.20;35.28;;;;;;;12.54;48.99;99165.59;6304512;22;20407;-89
2022/03/30 05:36:58;;;;;;;59.83;38.40;;;;;;;11.68;49.17;98987.16;6304295;22;20357;-89
2022/03/30 05:39:24;;;;;;;61.60;40.08;;;;;;;12.46;48.55;99107.53;6304249;22;20003;-89
2022/03/30 05:41:49;;;;;;;62.35;41.33;;;;;;;12.35;48.39;99079.00;6304827;22;20484;-89
2022/03/30 05:44:15;;;;;;;60.80;41.78;;;;;;;12.61;48.78;99134.66;6303794;22;20010;-89
2022/03/30 05:46:40;;;;;;;62.75;40.03;;;;;;;12.76;48.14;99125.72;6303733;22;19999;-89
2022/03/30 05:49:06;;;;;;;58.03;34.42;;;;;;;12.70;48.86;99132.66;6304075;22;19991;-89
2022/03/30 05:51:32;;;;;;;57.50;37.30;;;;;;;12.13;48.13;99004.22;6306217;22;19998;-89
2022/03/30 05:53:58;;;;;;;56.65;35.10;;;;;;;12.61;48.27;99086.97;6304229;22;20076;-89
2022/03/30 05:57:00;;;;;;;54.03;33.22;;;;;;;12.39;48.31;99083.69;6305452;22;20002;-89
2022/03/30 05:59:11;;;;;;;42.28;28.88;;;;;;;12.29;48.32;99019.72;6305467;22;20027;-88
2022/03/30 06:01:37;;;;;;;49.53;30.10;;;;;;;12.97;48.51;99138.78;6303840;22;20026;-88
2022/03/30 06:04:03;;;;;;;46.20;30.73;;;;;;;12.24;48.29;98989.59;6304457;22;20352;-88
2022/03/30 06:06:28;;;;;;;45.25;31.35;;;;;;;13.19;48.57;99139.44;6303653;22;19999;-89
2022/03/30 06:08:53;;;;;;;42.80;28.77;;;;;;;12.33;48.63;98983.91;6303704;22;20444;-90
2022/03/30 06:11:19;;;;;;;45.88;27.00;;;;;;;12.48;48.28;99004.06;6302804;22;20026;-88
2022/03/30 06:13:44;;;;;;;42.00;26.50;;;;;;;12.46;48.57;98987.56;6303489;22;19991;-88
2022/03/30 06:16:10;;;;;;;42.38;26.42;;;;;;;13.45;48.31;99114.75;6303805;22;20003;-87
2022/03/30 06:18:36;;;;;;;39.60;24.75;;;;;;;13.51;48.14;99135.97;6305533;22;20010;-87
2022/03/30 06:21:02;;;;;;;42.67;25.88;;;;;;;13.59;48.28;99125.13;6279302;22;20372;-87
2022/03/30 06:23:28;;;;;;;42.45;25.88;;;;;;;13.55;48.24;99105.34;6272703;22;20026;-87
2022/03/30 06:25:54;;;;;;;43.05;27.00;;;;;;;13.77;47.97;99121.81;6272497;22;20057;-87
2022/03/30 06:28:23;;;;;;;43.03;24.85;;;;;;;13.51;47.93;99087.41;6272377;22;20000;-87
2022/03/30 06:30:48;;;;;;;37.60;24.02;;;;;;;13.27;47.83;99035.81;6303497;22;20575;-87
2022/03/30 06:33:14;;;;;;;36.05;23.35;;;;;;;13.62;47.91;99089.41;6274700;22;20026;-89
2022/03/30 06:35:40;;;;;;;34.53;21.63;;;;;;;13.37;47.45;99007.03;6278420;22;20436;-89
2022/03/30 06:38:05;;;;;;;36.25;21.45;;;;;;;13.44;47.59;99021.13;6307058;22;19995;-87
2022/03/30 06:40:32;;;;;;;31.30;21.52;;;;;;;13.37;47.39;98988.47;6304887;22;20006;-87
2022/03/30 06:43:00;;;;;;;25.83;16.45;;;;;;;13.93;47.50;99099.31;6278644;22;20440;-89
2022/03/30 06:45:28;;;;;;;23.80;15.73;;;;;;;13.98;47.09;99100.31;6277895;22;19999;-88
2022/03/30 06:47:53;;;;;;;19.15;12.25;;;;;;;13.85;47.38;99052.59;6305745;22;20006;-86
2022/03/30 06:50:19;;;;;;;19.38;12.88;;;;;;;14.54;47.04;99146.66;6305778;22;20066;-87
2022/03/30 06:52:48;;;;;;;17.67;11.13;;;;;;;14.60;47.23;99136.00;6305120;22;20045;-86
2022/03/30 06:55:14;;;;;;;15.15;9.75;;;;;;;14.27;46.83;99067.09;6306249;22;20070;-86
2022/03/30 06:57:41;;;;;;;12.43;9.93;;;;;;;14.80;47.15;99135.84;6306111;22;19995;-85
2022/03/30 07:00:07;;;;;;;13.07;9.20;;;;;;;14.43;46.82;99084.41;6305875;22;20094;-86
2022/03/30 07:02:32;;;;;;;23.50;13.90;;;;;;;14.68;46.56;99112.84;6305986;22;20061;-86
2022/03/30 07:04:58;;;;;;;17.50;12.73;;;;;;;15.05;46.62;99145.72;6305964;22;20006;-86
2022/03/30 07:10:17;;;;;;;21.17;12.80;;;;;;;14.68;46.08;99062.38;6305915;22;20578;-87
2022/03/30 07:12:47;;;;;;;17.80;10.63;;;;;;;14.42;46.08;99020.84;6304186;22;19999;-86
2022/03/30 07:15:15;;;;;;;15.40;10.20;;;;;;;15.38;45.71;99142.78;6304245;22;20006;-85
2022/03/30 07:17:48;;;;;;;18.67;11.27;;;;;;;15.33;45.47;99134.66;6303816;22;19999;-86
2022/03/30 07:20:14;;;;;;;17.40;11.20;;;;;;;15.44;45.25;99125.94;6302517;22;20460;-85
2022/03/30 07:22:41;;;;;;;15.80;9.20;;;;;;;15.47;45.12;99131.66;6304751;22;20402;-85
2022/03/30 07:25:08;;;;;;;17.05;10.15;;;;;;;15.27;44.83;99081.28;6304373;22;20007;-85
2022/03/30 07:27:34;;;;;;;13.25;8.85;;;;;;;15.75;44.18;99133.06;6304769;22;20074;-86
2022/03/30 07:29:59;;;;;;;15.38;10.02;;;;;;;15.54;44.38;99123.59;6306374;22;19995;-85
2022/03/30 07:32:25;;;;;;;15.80;8.63;;;;;;;15.07;43.87;99022.19;6304867;22;20003;-85
2022/03/30 07:34:53;;;;;;;12.60;8.55;;;;;;;15.88;43.41;99136.38;6306002;22;19999;-86
2022/03/30 07:37:19;;;;;;;16.98;9.93;;;;;;;15.68;43.65;99087.06;6303337;22;20005;-85
2022/03/30 07:39:44;;;;;;;25.67;15.52;;;;;;;15.54;43.25;99044.59;6306392;22;20031;-86
2022/03/30 07:42:09;;;;;;;14.90;9.60;;;;;;;16.09;43.02;99120.97;6306497;22;20000;-86
2022/03/30 07:44:35;;;;;;;13.07;9.02;;;;;;;16.18;43.21;99141.75;6304165;22;20078;-85
2022/03/30 07:47:02;;;;;;;15.27;9.73;;;;;;;16.42;42.65;99153.38;6303327;22;19999;-87
2022/03/30 07:49:28;;;;;;;14.27;8.27;;;;;;;16.06;42.65;99081.50;6304655;22;20003;-86
2022/03/30 07:51:53;;;;;;;15.27;8.85;;;;;;;16.35;42.42;99112.69;6306257;22;20330;-87
2022/03/30 07:54:19;;;;;;;13.35;10.13;;;;;;;16.52;42.36;99127.00;6306291;22;20061;-86
2022/03/30 07:56:44;;;;;;;12.02;8.57;;;;;;;16.23;42.35;99071.84;6303843;22;19995;-86
2022/03/30 07:59:10;;;;;;;13.32;9.57;;;;;;;16.88;42.20;99143.13;6304751;22;20003;-86
2022/03/30 08:01:35;;;;;;;14.25;9.70;;;;;;;16.40;41.56;99062.19;6305384;22;20068;-86
2022/03/30 08:04:01;;;;;;;19.75;10.13;;;;;;;16.74;41.53;99081.19;6305087;22;19999;-86
2022/03/30 08:06:26;;;;;;;17.42;8.80;;;;;;;16.51;41.24;99034.75;6306236;22;20476;-85
2022/03/30 08:08:52;;;;;;;18.20;11.02;;;;;;;16.55;41.17;99028.97;6306915;22;20052;-86
2022/03/30 08:11:18;;;;;;;18.10;11.25;;;;;;;17.25;40.90;99112.56;6304792;22;20003;-86
2022/03/30 08:13:43;;;;;;;18.10;13.18;;;;;;;17.08;41.33;99127.63;6304493;22;20428;-85
2022/03/30 08:16:09;;;;;;;17.58;10.90;;;;;;;17.29;41.11;99118.25;6304821;22;19999;-86
2022/03/30 08:18:34;;;;;;;17.27;9.48;;;;;;;17.52;40.97;99128.94;6306455;22;20003;-86
2022/03/30 08:23:43;;;;;;;14.43;9.82;;;;;;;17.31;40.56;99068.97;6306816;22;20133;-88
2022/03/30 08:26:09;;;;;;;14.20;8.88;;;;;;;17.06;40.19;99005.16;6306629;22;20046;-87
2022/03/30 08:28:34;;;;;;;17.05;9.75;;;;;;;17.64;39.99;99072.84;6305119;22;20002;-87
2022/03/30 08:31:00;;;;;;;12.18;9.45;;;;;;;17.67;39.86;99049.19;6305257;22;20026;-86
2022/03/30 08:33:27;;;;;;;15.65;9.27;;;;;;;17.14;39.08;98945.31;6305406;22;20023;-87
2022/03/30 08:35:56;;;;;;;14.88;9.43;;;;;;;18.46;38.30;99121.56;6304926;22;20007;-87
2022/03/30 08:38:22;;;;;;;14.30;9.05;;;;;;;18.53;37.73;99116.88;6306492;22;20479;-87
2022/03/30 08:40:49;;;;;;;12.20;9.25;;;;;;;17.84;37.27;99003.91;6304594;22;20004;-86
2022/03/30 08:43:14;;;;;;;12.10;8.63;;;;;;;18.73;37.09;99098.56;6302914;22;20525;-86
2022/03/30 08:45:41;;;;;;;12.48;8.25;;;;;;;18.05;36.92;98973.03;6304541;22;20033;-87
2022/03/30 08:48:07;;;;;;;10.60;8.10;;;;;;;18.72;36.97;99064.03;6304387;22;19999;-86
2022/03/30 08:50:33;;;;;;;13.20;9.23;;;;;;;19.19;36.11;99101.97;6303120;22;20054;-86
2022/03/30 08:53:03;;;;;;;17.95;12.70;;;;;;;18.84;36.35;99026.50;6302823;22;20007;-86
2022/03/30 08:55:29;;;;;;;12.73;9.18;;;;;;;18.79;36.25;99015.75;6305788;22;20015;-86
2022/03/30 08:57:55;;;;;;;15.95;12.05;;;;;;;19.47;36.18;99089.56;6305255;22;20003;-85
2022/03/30 09:00:22;;;;;;;15.32;9.30;;;;;;;18.91;35.79;98985.16;6303776;22;20011;-86
2022/03/30 09:03:00;;;;;;;14.00;10.60;;;;;;;19.80;35.65;99086.00;6305650;22;20061;-86
2022/03/30 09:05:31;;;;;;;18.80;12.82;;;;;;;19.78;35.49;99055.97;6305723;22;20074;-86
2022/03/30 09:08:07;;;;;;;12.98;11.48;;;;;;;18.97;35.40;98921.84;6304220;22;20003;-86
2022/03/30 09:10:33;;;;;;;19.67;16.27;;;;;;;19.30;35.15;98945.00;6305836;22;20070;-86
2022/03/30 09:12:58;;;;;;;12.75;10.48;;;;;;;19.98;34.12;99018.69;6303914;22;20041;-86
2022/03/30 09:15:25;;;;;;;12.00;10.25;;;;;;;19.96;33.66;98989.47;6303555;22;19991;-86
2022/03/30 09:17:56;;;;;;;21.60;15.15;;;;;;;19.98;33.47;98965.91;6303874;22;20003;-86
2022/03/30 09:20:23;;;;;;;19.83;12.10;;;;;;;20.24;33.06;98969.66;6303669;22;20003;-85
2022/03/30 09:22:52;;;;;;;15.57;11.82;;;;;;;20.98;32.44;99075.47;6303776;22;20022;-85
2022/03/30 09:25:18;;;;;;;16.60;11.13;;;;;;;21.09;32.29;99036.88;6303571;22;20026;-86
2022/03/30 09:27:46;;;;;;;13.85;10.35;;;;;;;21.32;31.40;99052.63;6305156;22;20026;-86
2022/03/30 09:30:15;;;;;;;15.30;9.07;;;;;;;20.74;30.74;99006.03;6303311;22;19991;-86
2022/03/30 09:32:42;;;;;;;16.58;11.02;;;;;;;20.50;31.47;98959.16;6301039;22;20003;-86
2022/03/30 09:35:27;;;;;;;10.90;9.20;;;;;;;21.34;31.22;99037.06;6302433;22;20452;-85
2022/03/30 09:38:05;;;;;;;13.52;9.73;;;;;;;21.41;31.30;99040.31;6301987;22;20003;-85
2022/03/30 09:40:54;;;;;;;15.55;10.98;;;;;;;21.56;30.53;99035.06;6304431;22;20007;-85
2022/03/30 09:43:26;;;;;;;17.05;10.45;;;;;;;21.67;30.24;99029.72;6304941;22;20007;-85
2022/03/30 09:46:13;;;;;;;15.15;10.45;;;;;;;21.79;29.52;99038.38;6303437;22;19999;-86
2022/03/30 09:48:49;;;;;;;13.32;9.93;;;;;;;22.01;29.34;99009.41;6301526;22;20006;-86
2022/03/30 09:51:17;;;;;;;13.52;9.18;;;;;;;21.59;28.61;98925.44;6301683;22;20401;-86
2022/03/30 09:53:43;;;;;;;18.90;11.55;;;;;;;21.79;28.43;98920.13;6291435;22;20030;-86
2022/03/30 09:56:32;;;;;;;14.85;10.25;;;;;;;22.38;27.08;98992.31;6271118;22;20448;-84
2022/03/30 09:59:05;;;;;;;15.32;11.07;;;;;;;22.23;27.42;98931.22;6271480;22;20010;-85
2022/03/30 10:01:33;;;;;;;19.48;12.48;;;;;;;22.25;26.99;98939.81;6272574;22;20043;-86
2022/03/30 10:04:02;;;;;;;16.33;10.88;;;;;;;22.23;26.98;98890.06;6273993;22;20022;-85
2022/03/30 10:06:36;;;;;;;19.42;11.60;;;;;;;23.08;26.35;98987.97;6272430;22;20079;-85
2022/03/30 10:09:02;;;;;;;14.93;12.07;;;;;;;23.12;26.61;98983.66;6272734;22;19999;-85
2022/03/30 10:11:29;;;;;;;16.70;12.25;;;;;;;22.90;26.47;98923.91;6273841;22;20076;-85
2022/03/30 10:14:00;;;;;;;20.17;12.80;;;;;;;23.05;26.22;98934.69;6272767;22;20002;-85
2022/03/30 10:16:27;;;;;;;15.98;11.27;;;;;;;23.01;26.30;98883.22;6273779;22;19995;-85
2022/03/30 10:18:54;;;;;;;17.75;10.90;;;;;;;22.76;26.63;98824.88;6273292;22;20077;-85
2022/03/30 10:21:54;;;;;;;16.92;10.35;;;;;;;23.88;25.96;98967.22;6270542;22;20073;-84
2022/03/30 10:24:58;;;;;;;15.85;10.85;;;;;;;23.86;26.82;98953.22;6272252;22;20000;-86
2022/03/30 10:27:28;;;;;;;15.50;10.75;;;;;;;23.72;26.86;98957.56;6271741;22;20004;-85
2022/03/30 10:29:58;;;;;;;17.15;10.52;;;;;;;23.47;27.28;98928.84;6271442;22;20503;-85
2022/03/30 10:32:25;;;;;;;19.02;11.35;;;;;;;23.63;27.00;98946.56;6273512;22;20017;-85
2022/03/30 10:34:53;;;;;;;14.73;10.40;;;;;;;23.70;26.85;98959.75;6273376;22;20004;-85
2022/03/30 10:37:34;;;;;;;19.77;11.82;;;;;;;23.66;26.45;98954.09;6273115;22;20503;-84
2022/03/30 10:40:03;;;;;;;16.90;11.65;;;;;;;23.55;26.72;98940.97;6271836;22;20523;-85
2022/03/30 10:42:52;;;;;;;17.58;10.85;;;;;;;23.74;26.70;98944.63;6270686;22;20000;-84
2022/03/30 10:45:37;;;;;;;18.13;11.13;;;;;;;23.45;26.07;98875.22;6271121;22;20010;-85
2022/03/30 10:48:09;;;;;;;17.52;11.25;;;;;;;24.08;26.04;98936.63;6272598;22;20380;-85
2022/03/30 10:50:36;;;;;;;19.23;11.40;;;;;;;24.06;25.75;98926.09;6273130;22;20003;-85
2022/03/30 10:53:02;;;;;;;15.45;9.70;;;;;;;23.90;25.63;98903.03;6272184;22;19995;-87
2022/03/30 10:55:30;;;;;;;15.77;10.75;;;;;;;23.44;25.28;98854.75;6272689;22;20057;-86
2022/03/30 10:58:04;;;;;;;15.55;10.25;;;;;;;23.21;25.47;98850.03;6271915;22;20083;-87
2022/03/30 11:00:38;;;;;;;15.38;11.20;;;;;;;23.60;25.44;98917.50;6273052;22;20007;-86
2022/03/30 11:03:28;;;;;;;15.68;11.05;;;;;;;23.55;25.34;98938.25;6273886;22;20019;-86
2022/03/30 11:06:02;;;;;;;15.25;10.50;;;;;;;23.14;24.96;98930.34;6271149;22;20038;-86
2022/03/30 11:08:34;;;;;;;13.52;10.40;;;;;;;23.08;25.50;98920.66;6271296;22;20004;-87
2022/03/30 11:11:03;;;;;;;;;;;;;;;23.18;25.61;98923.31;6272949;22;20053;-86
2022/03/30 11:13:29;;;;;;;17.45;10.52;;;;;;;23.25;25.14;98896.91;6271966;22;19903;-86
2022/03/30 11:15:58;;;;;;;20.10;10.38;;;;;;;23.44;24.50;98857.47;6273939;22;20078;-86
2022/03/30 11:18:23;;;;;;;15.25;9.23;;;;;;;22.93;24.54;98816.50;6272767;22;20456;-86
2022/03/30 11:21:19;;;;;;;15.40;9.27;;;;;;;23.68;24.88;98903.41;6274045;22;20000;-86
2022/03/30 11:23:58;;;;;;;16.90;9.20;;;;;;;23.95;24.81;98892.22;6275135;22;20065;-86
2022/03/30 11:26:49;;;;;;;14.80;9.63;;;;;;;24.38;24.45;98884.31;6275024;22;20007;-87
2022/03/30 11:29:44;;;;;;;15.00;9.57;;;;;;;24.57;24.22;98881.75;6274871;22;19992;-86